Time;durP1;ratioP1;P1;durP2;ratioP2;P2;SDS_P1;SDS_P2;PMS_P1;PMS_P2;Temp;Humidity;BMP_temperature;BMP_pressure;BME280_temperature;BME280_humidity;BME280_pressure;Samples;Min_cycle;Max_cycle;Signal;HPM_P1;HPM_P2
2022/01/04 00:01:58;;;;;;;2.70;1.77;;;9.60;10.70;;;;;;4922067;29;20188;-78
2022/01/04 00:04:24;;;;;;;5.77;1.60;;;9.60;23.00;;;;;;4924550;29;20179;-79
2022/01/04 00:06:50;;;;;;;3.43;1.40;;;9.60;30.70;;;;;;4926052;29;20184;-80
2022/01/04 00:09:16;;;;;;;2.13;1.43;;;9.60;43.90;;;;;;4923980;29;20218;-79
2022/01/04 00:11:56;;;;;;;2.10;1.60;;;9.60;48.10;;;;;;4923137;29;20558;-79
2022/01/04 00:14:22;;;;;;;2.47;1.53;;;9.60;60.00;;;;;;4920151;29;20215;-79
2022/01/04 00:16:48;;;;;;;4.17;1.83;;;9.60;70.20;;;;;;4923936;29;20183;-79
2022/01/04 00:19:14;;;;;;;2.93;1.60;;;9.60;65.60;;;;;;4925826;29;20184;-79
2022/01/04 00:21:40;;;;;;;2.70;1.50;;;9.60;79.30;;;;;;4924875;29;20207;-79
2022/01/04 00:24:06;;;;;;;2.90;1.50;;;9.60;91.20;;;;;;4926478;29;20214;-78
2022/01/04 00:26:32;;;;;;;5.23;1.40;;;9.60;95.20;;;;;;4924420;29;20196;-79
2022/01/04 00:28:58;;;;;;;1.60;1.43;;;9.60;98.60;;;;;;4923904;29;20191;-78
2022/01/04 00:31:24;;;;;;;1.80;1.70;;;9.70;92.30;;;;;;4917157;29;20214;-80
2022/01/04 00:33:50;;;;;;;3.83;1.57;;;9.70;89.40;;;;;;4919181;29;20616;-78
2022/01/04 00:36:16;;;;;;;3.43;1.70;;;9.70;97.60;;;;;;4918300;29;20196;-77
2022/01/04 00:38:42;;;;;;;1.87;1.40;;;9.70;98.80;;;;;;4918058;29;20705;-80
2022/01/04 00:41:07;;;;;;;2.30;1.60;;;9.80;68.10;;;;;;4920301;29;20184;-78
2022/01/04 00:43:33;;;;;;;2.93;1.50;;;9.80;54.80;;;;;;4925293;29;20176;-79
2022/01/04 00:46:00;;;;;;;2.80;1.60;;;9.70;80.40;;;;;;4925964;29;20196;-79
2022/01/04 00:50:51;;;;;;;3.33;1.60;;;9.60;99.90;;;;;;4919348;29;20222;-77
2022/01/04 00:53:17;;;;;;;2.97;1.67;;;9.60;99.90;;;;;;4924888;29;20271;-79
2022/01/04 00:55:43;;;;;;;3.73;1.50;;;9.60;99.90;;;;;;4929690;29;20210;-78
2022/01/04 00:58:09;;;;;;;2.93;1.50;;;9.60;99.90;;;;;;4920763;29;20172;-78
2022/01/04 01:00:35;;;;;;;2.10;1.60;;;9.60;99.90;;;;;;4926305;29;20700;-79
2022/01/04 01:03:00;;;;;;;3.40;1.70;;;9.60;99.90;;;;;;4923150;29;20188;-78
2022/01/04 01:05:26;;;;;;;1.60;1.50;;;9.60;99.90;;;;;;4922533;29;20664;-78
2022/01/04 01:07:53;;;;;;;2.03;1.40;;;9.60;99.90;;;;;;4924957;29;20183;-79
2022/01/04 01:10:40;;;;;;;2.40;1.43;;;9.60;99.90;;;;;;4904332;29;20311;-78
2022/01/04 01:13:06;;;;;;;1.80;1.57;;;9.60;99.90;;;;;;4929196;29;20243;-80
2022/01/04 01:15:31;;;;;;;3.23;1.60;;;9.60;99.90;;;;;;4920496;29;20196;-78
2022/01/04 01:17:57;;;;;;;4.80;1.73;;;9.50;99.90;;;;;;4922659;29;20645;-79
2022/01/04 01:20:23;;;;;;;2.03;1.50;;;9.50;99.90;;;;;;4928334;29;20180;-78
2022/01/04 01:22:48;;;;;;;2.33;1.50;;;9.60;99.90;;;;;;4927689;29;20199;-78
2022/01/04 01:25:14;;;;;;;2.50;1.57;;;9.50;99.90;;;;;;4928939;29;20289;-79
2022/01/04 01:27:41;;;;;;;1.90;1.60;;;9.50;99.90;;;;;;4928393;29;20188;-79
2022/01/04 01:30:08;;;;;;;1.77;1.57;;;9.50;99.90;;;;;;4929095;29;20283;-79
2022/01/04 01:32:34;;;;;;;1.97;1.50;;;9.60;99.90;;;;;;4930782;29;20208;-79
2022/01/04 01:35:00;;;;;;;2.43;1.87;;;9.50;99.90;;;;;;4929872;29;20215;-78
2022/01/04 01:37:25;;;;;;;2.83;1.60;;;9.50;99.90;;;;;;4929584;29;20180;-79
2022/01/04 01:39:51;;;;;;;3.23;2.07;;;9.60;99.90;;;;;;4926163;29;20183;-78
2022/01/04 01:42:17;;;;;;;2.27;1.70;;;9.70;99.90;;;;;;4927456;29;20227;-79
2022/01/04 01:44:42;;;;;;;2.23;1.90;;;9.60;99.90;;;;;;4928034;29;20259;-77
2022/01/04 01:47:08;;;;;;;3.27;1.93;;;9.60;99.90;;;;;;4922136;29;20495;-77
2022/01/04 01:49:34;;;;;;;3.37;1.80;;;9.60;99.90;;;;;;4921500;29;20225;-78
2022/01/04 01:52:00;;;;;;;3.33;2.10;;;9.60;99.90;;;;;;4920675;29;20176;-77
2022/01/04 01:54:26;;;;;;;2.67;1.97;;;9.50;99.90;;;;;;4917759;29;20180;-78
2022/01/04 01:56:51;;;;;;;3.27;2.20;;;9.60;99.90;;;;;;4932266;29;20205;-78
2022/01/04 01:59:17;;;;;;;2.10;1.90;;;9.60;99.90;;;;;;4929036;29;20557;-78
2022/01/04 02:01:44;;;;;;;4.00;2.10;;;9.60;99.90;;;;;;4926466;29;20191;-77
2022/01/04 02:04:09;;;;;;;3.53;1.80;;;9.60;99.90;;;;;;4921574;29;20216;-79
2022/01/04 02:06:35;;;;;;;6.70;2.20;;;9.70;99.90;;;;;;4919436;29;20200;-77
2022/01/04 02:09:02;;;;;;;2.23;1.80;;;9.80;99.90;;;;;;4919030;29;20274;-77
2022/01/04 02:11:29;;;;;;;2.57;2.13;;;9.80;99.90;;;;;;4918638;29;20188;-78
2022/01/04 02:13:58;;;;;;;3.33;2.10;;;9.80;99.90;;;;;;4919250;29;20190;-77
2022/01/04 02:16:26;;;;;;;3.53;1.90;;;9.90;99.90;;;;;;4919511;29;20677;-77
2022/01/04 02:18:52;;;;;;;2.73;2.00;;;9.90;99.90;;;;;;4919660;29;20254;-78
2022/01/04 02:21:18;;;;;;;2.83;2.10;;;9.90;99.90;;;;;;4919087;29;20187;-78
2022/01/04 02:23:44;;;;;;;2.60;1.90;;;9.90;99.90;;;;;;4920845;29;20660;-78
2022/01/04 02:26:09;;;;;;;1.97;1.77;;;9.90;99.90;;;;;;4924312;29;20256;-79
2022/01/04 02:28:35;;;;;;;2.20;1.90;;;9.90;91.60;;;;;;4923873;29;20263;-77
2022/01/04 02:31:01;;;;;;;4.53;1.90;;;9.90;93.80;;;;;;4922288;29;20231;-78
2022/01/04 02:33:26;;;;;;;2.83;2.10;;;9.90;99.90;;;;;;4919819;29;20195;-76
2022/01/04 02:35:52;;;;;;;1.90;1.70;;;9.90;97.70;;;;;;4919389;29;20297;-77
2022/01/04 02:38:18;;;;;;;2.20;1.70;;;9.90;99.90;;;;;;4919001;29;20242;-78
2022/01/04 02:40:43;;;;;;;2.70;1.80;;;9.80;99.90;;;;;;4919073;29;20600;-77
2022/01/04 02:43:09;;;;;;;3.33;1.97;;;9.80;99.90;;;;;;4921633;29;20176;-77
2022/01/04 02:45:35;;;;;;;2.80;1.70;;;9.90;96.50;;;;;;4921361;29;20204;-78
2022/01/04 02:48:00;;;;;;;2.53;1.73;;;9.90;94.60;;;;;;4920081;29;20192;-77
2022/01/04 02:50:26;;;;;;;1.83;1.63;;;9.80;99.90;;;;;;4917951;29;20250;-77
2022/01/04 02:52:52;;;;;;;2.30;2.00;;;9.80;99.90;;;;;;4919363;29;20188;-77
2022/01/04 02:55:18;;;;;;;3.23;1.90;;;9.90;63.70;;;;;;4918911;29;20208;-77
2022/01/04 02:57:44;;;;;;;2.57;1.80;;;9.90;65.70;;;;;;4919661;29;20184;-78
2022/01/04 03:00:12;;;;;;;3.17;1.70;;;10.00;30.10;;;;;;4901441;29;20708;-79
2022/01/04 03:02:38;;;;;;;3.30;1.67;;;10.00;17.30;;;;;;4925037;29;20188;-78
2022/01/04 03:05:05;;;;;;;1.73;1.63;;;10.10;8.20;;;;;;4923676;29;20207;-78
2022/01/04 03:07:32;;;;;;;2.83;1.93;;;10.10;1.90;;;;;;4926597;29;20183;-79
2022/01/04 03:09:57;;;;;;;2.23;1.80;;;10.00;7.70;;;;;;4926606;29;20212;-77
2022/01/04 03:12:23;;;;;;;2.87;1.80;;;10.00;14.00;;;;;;4926173;29;20196;-79
2022/01/04 03:14:48;;;;;;;2.40;1.77;;;10.10;1.00;;;;;;4925564;29;20203;-79
2022/01/04 03:17:14;;;;;;;2.47;1.97;;;10.10;1.00;;;;;;4925227;29;20210;-79
2022/01/04 03:19:39;;;;;;;2.20;1.70;;;10.10;7.70;;;;;;4926858;29;20180;-79
2022/01/04 03:22:05;;;;;;;3.43;1.90;;;10.00;41.00;;;;;;4922093;29;20183;-78
2022/01/04 03:24:31;;;;;;;3.00;1.83;;;9.90;63.80;;;;;;4925276;29;20275;-78
2022/01/04 03:26:56;;;;;;;2.23;1.80;;;10.00;74.90;;;;;;4927457;29;20180;-79
2022/01/04 03:29:22;;;;;;;2.80;1.90;;;10.00;79.80;;;;;;4928250;29;20302;-78
2022/01/04 03:31:48;;;;;;;3.67;1.90;;;10.00;56.80;;;;;;4927564;29;20185;-78
2022/01/04 03:34:14;;;;;;;3.47;2.03;;;10.00;90.90;;;;;;4926787;29;20187;-78
2022/01/04 03:36:40;;;;;;;2.27;2.00;;;9.90;85.30;;;;;;4921331;29;20697;-78
2022/01/04 03:39:08;;;;;;;2.03;1.80;;;9.90;99.90;;;;;;4924200;29;20184;-78
2022/01/04 03:41:40;;;;;;;3.50;2.00;;;9.80;99.90;;;;;;4928060;29;20641;-78
2022/01/04 03:44:10;;;;;;;3.17;1.87;;;9.90;99.90;;;;;;4928109;29;20204;-79
2022/01/04 03:46:36;;;;;;;3.40;1.97;;;9.90;85.20;;;;;;4928741;29;20203;-79
2022/01/04 03:49:02;;;;;;;3.83;2.10;;;9.80;99.90;;;;;;4926596;29;20324;-77
2022/01/04 03:51:27;;;;;;;2.13;1.73;;;9.70;99.90;;;;;;4923710;29;20220;-78
2022/01/04 03:53:53;;;;;;;2.80;1.80;;;9.70;99.90;;;;;;4924518;29;20195;-78
2022/01/04 03:56:19;;;;;;;2.87;2.13;;;9.80;99.90;;;;;;4924848;29;20545;-79
2022/01/04 03:58:44;;;;;;;3.23;1.70;;;9.70;99.90;;;;;;4926545;29;20331;-78
2022/01/04 04:01:10;;;;;;;3.13;1.83;;;9.70;99.90;;;;;;4927156;29;20187;-79
2022/01/04 04:03:36;;;;;;;2.67;1.80;;;9.60;99.90;;;;;;4927256;29;20188;-78
2022/01/04 04:06:02;;;;;;;2.73;1.90;;;9.70;99.90;;;;;;4921839;29;20311;-78
2022/01/04 04:08:28;;;;;;;2.30;1.90;;;9.70;99.90;;;;;;4919612;29;20179;-78
2022/01/04 04:10:54;;;;;;;2.30;2.00;;;9.70;99.90;;;;;;4936262;29;20226;-79
2022/01/04 04:13:19;;;;;;;2.70;2.00;;;9.60;99.90;;;;;;4929063;29;20183;-78
2022/01/04 04:15:45;;;;;;;2.13;1.93;;;9.60;99.90;;;;;;4926585;29;20240;-78
2022/01/04 04:18:13;;;;;;;1.97;1.77;;;9.70;99.90;;;;;;4929250;29;20187;-79
2022/01/04 04:20:40;;;;;;;3.07;1.93;;;9.70;99.90;;;;;;4913804;29;20191;-79
2022/01/04 04:23:06;;;;;;;3.67;2.00;;;9.70;99.90;;;;;;4931088;29;20180;-79
2022/01/04 04:25:33;;;;;;;2.30;1.80;;;9.70;99.90;;;;;;4930591;29;20522;-79
2022/01/04 04:27:58;;;;;;;3.77;1.80;;;9.70;99.90;;;;;;4929108;29;20190;-79
2022/01/04 04:30:25;;;;;;;2.43;2.13;;;9.80;99.90;;;;;;4926185;29;20243;-78
2022/01/04 04:32:50;;;;;;;2.27;1.90;;;9.80;99.90;;;;;;4926128;29;20179;-78
2022/01/04 04:35:16;;;;;;;1.90;1.80;;;9.80;99.90;;;;;;4924472;29;20247;-79
2022/01/04 04:37:42;;;;;;;2.20;1.70;;;9.80;99.90;;;;;;4925049;29;20627;-78
2022/01/04 04:40:09;;;;;;;4.43;1.90;;;9.80;99.90;;;;;;4924605;29;20270;-78
2022/01/04 04:42:34;;;;;;;3.90;1.97;;;9.80;99.90;;;;;;4922747;29;20176;-77
2022/01/04 04:45:00;;;;;;;2.50;1.97;;;9.80;99.90;;;;;;4921215;29;20307;-77
2022/01/04 04:47:26;;;;;;;2.77;1.83;;;9.80;99.90;;;;;;4922463;29;20266;-78
2022/01/04 04:49:53;;;;;;;2.00;1.80;;;9.90;99.90;;;;;;4924570;29;20211;-77
2022/01/04 04:52:19;;;;;;;3.13;1.73;;;9.90;99.90;;;;;;4923704;29;20248;-78
2022/01/04 04:54:44;;;;;;;4.40;2.37;;;9.60;99.90;;;;;;4924991;29;20261;-78
2022/01/04 04:57:10;;;;;;;3.43;1.83;;;9.70;99.90;;;;;;4924044;29;20180;-78
2022/01/04 04:59:36;;;;;;;3.23;1.80;;;9.60;99.90;;;;;;4925992;29;20183;-77
2022/01/04 05:02:02;;;;;;;4.90;2.00;;;9.50;99.90;;;;;;4926114;29;20270;-78
2022/01/04 05:04:28;;;;;;;2.40;1.80;;;9.50;99.90;;;;;;4926147;29;20188;-78
2022/01/04 05:06:53;;;;;;;3.00;2.10;;;9.50;99.90;;;;;;4927287;29;20176;-78
2022/01/04 05:09:19;;;;;;;5.53;2.10;;;9.50;99.90;;;;;;4935738;29;20440;-78
2022/01/04 05:11:45;;;;;;;3.07;1.77;;;9.40;99.90;;;;;;4937077;29;20206;-77
2022/01/04 05:14:10;;;;;;;2.13;1.80;;;9.40;99.90;;;;;;4936088;29;20188;-77
2022/01/04 05:16:36;;;;;;;2.30;1.97;;;9.30;99.90;;;;;;4935372;29;20195;-77
2022/01/04 05:19:02;;;;;;;4.80;2.00;;;9.40;99.90;;;;;;4935154;29;20199;-78
2022/01/04 05:21:27;;;;;;;3.47;1.90;;;9.40;99.90;;;;;;4936421;29;20179;-78
2022/01/04 05:23:54;;;;;;;3.13;2.10;;;9.30;99.90;;;;;;4936846;29;20179;-77
2022/01/04 05:26:20;;;;;;;3.40;1.87;;;9.30;99.90;;;;;;4918619;29;20200;-78
2022/01/04 05:28:46;;;;;;;2.93;1.90;;;9.30;99.90;;;;;;4930412;29;20660;-79
2022/01/04 05:31:13;;;;;;;5.13;3.00;;;9.30;99.90;;;;;;4933266;29;20216;-78
2022/01/04 05:33:39;;;;;;;6.00;3.13;;;9.40;99.90;;;;;;4935403;29;20168;-79
2022/01/04 05:36:05;;;;;;;5.10;4.40;;;9.30;99.90;;;;;;4930827;29;20269;-78
2022/01/04 05:38:31;;;;;;;3.60;2.00;;;9.30;99.90;;;;;;4929941;29;20176;-77
2022/01/04 05:40:56;;;;;;;2.57;2.00;;;9.30;99.90;;;;;;4926441;29;20192;-78
2022/01/04 05:43:22;;;;;;;2.40;1.90;;;9.20;99.90;;;;;;4927656;29;20176;-77
2022/01/04 05:45:47;;;;;;;2.80;1.93;;;9.10;99.90;;;;;;4926099;29;20195;-78
2022/01/04 05:48:13;;;;;;;3.93;2.13;;;9.10;99.90;;;;;;4923838;29;20176;-77
2022/01/04 05:50:39;;;;;;;3.40;2.17;;;9.10;99.90;;;;;;4932080;29;20215;-78
2022/01/04 05:53:05;;;;;;;6.00;2.20;;;9.00;99.90;;;;;;4934798;29;20188;-78
2022/01/04 05:55:31;;;;;;;3.03;1.90;;;8.90;99.90;;;;;;4930312;29;20287;-77
2022/01/04 05:57:56;;;;;;;3.97;2.10;;;8.90;99.90;;;;;;4920276;29;20195;-78
2022/01/04 06:00:22;;;;;;;2.50;2.10;;;8.90;99.90;;;;;;4920109;29;20675;-77
2022/01/04 06:02:48;;;;;;;3.83;2.20;;;8.80;99.90;;;;;;4919832;29;20186;-77
2022/01/04 06:05:13;;;;;;;5.10;2.47;;;8.90;99.90;;;;;;4919347;29;20196;-77
2022/01/04 06:07:39;;;;;;;4.77;2.27;;;8.90;99.90;;;;;;4918428;29;20214;-77
2022/01/04 06:10:07;;;;;;;4.90;2.20;;;8.90;99.90;;;;;;4918630;29;20303;-77
2022/01/04 06:15:00;;;;;;;3.17;2.30;;;9.00;99.90;;;;;;4922576;29;20272;-77
2022/01/04 06:17:32;;;;;;;2.37;2.00;;;9.20;99.90;;;;;;4920875;29;20176;-78
2022/01/04 06:19:58;;;;;;;5.00;1.87;;;9.20;99.90;;;;;;4921631;29;20180;-78
2022/01/04 06:22:25;;;;;;;2.83;1.80;;;9.30;99.90;;;;;;4921166;29;20183;-78
2022/01/04 06:24:51;;;;;;;2.70;1.90;;;9.30;99.90;;;;;;4923845;29;20303;-79
2022/01/04 06:27:17;;;;;;;3.40;2.60;;;9.30;99.90;;;;;;4929018;29;20228;-78
2022/01/04 06:29:43;;;;;;;6.30;2.07;;;9.40;99.90;;;;;;4926936;29;20211;-78
2022/01/04 06:32:09;;;;;;;3.00;1.50;;;9.50;99.90;;;;;;4929138;29;20276;-77
2022/01/04 06:34:36;;;;;;;4.50;1.97;;;9.40;99.90;;;;;;4926786;29;21216;-78
2022/01/04 06:37:02;;;;;;;2.90;1.60;;;9.40;99.90;;;;;;4929754;29;20176;-78
2022/01/04 06:39:28;;;;;;;2.80;1.63;;;9.40;99.90;;;;;;4925847;29;20187;-77
2022/01/04 06:41:53;;;;;;;3.60;1.70;;;9.40;99.90;;;;;;4927178;29;20247;-79
2022/01/04 06:44:19;;;;;;;5.50;1.77;;;9.40;99.90;;;;;;4926142;29;20229;-78
2022/01/04 06:46:45;;;;;;;2.93;1.50;;;9.50;99.90;;;;;;4926945;29;20184;-78
2022/01/04 06:49:13;;;;;;;3.27;1.77;;;9.50;99.90;;;;;;4925428;29;20281;-77
2022/01/04 06:51:39;;;;;;;5.83;2.17;;;9.50;99.90;;;;;;4922796;29;20191;-79
2022/01/04 06:54:05;;;;;;;2.90;1.70;;;9.50;99.90;;;;;;4927827;29;20572;-78
2022/01/04 06:56:31;;;;;;;2.80;1.50;;;9.60;99.90;;;;;;4926815;29;20214;-78
2022/01/04 06:58:57;;;;;;;1.80;1.47;;;9.80;99.90;;;;;;4925302;29;20179;-78
2022/01/04 07:01:22;;;;;;;1.80;1.60;;;9.70;99.90;;;;;;4924724;29;20243;-78
2022/01/04 07:03:48;;;;;;;10.00;7.83;;;9.80;99.90;;;;;;4921678;29;20180;-78
2022/01/04 07:06:14;;;;;;;3.20;2.90;;;9.80;99.90;;;;;;4917424;29;20196;-79
2022/01/04 07:08:39;;;;;;;2.27;1.70;;;9.80;99.90;;;;;;4919754;29;20195;-78
2022/01/04 07:11:05;;;;;;;2.70;1.53;;;9.90;99.90;;;;;;4920890;29;20230;-79
2022/01/04 07:13:30;;;;;;;2.50;1.67;;;9.80;99.90;;;;;;4920332;29;20180;-80
2022/01/04 07:15:56;;;;;;;2.03;1.40;;;9.90;99.90;;;;;;4920979;29;20199;-79
2022/01/04 07:18:22;;;;;;;2.07;1.60;;;10.00;99.90;;;;;;4918018;29;20180;-79
2022/01/04 07:20:47;;;;;;;1.57;1.30;;;9.90;99.90;;;;;;4923877;29;20609;-78
2022/01/04 07:23:13;;;;;;;1.63;1.47;;;10.00;99.90;;;;;;4921055;29;20247;-79
2022/01/04 07:25:41;;;;;;;3.47;1.53;;;10.00;99.90;;;;;;4931432;29;20239;-78
2022/01/04 07:28:07;;;;;;;1.53;1.37;;;10.00;99.90;;;;;;4909033;29;20192;-77
2022/01/04 07:30:32;;;;;;;1.40;1.27;;;10.10;99.90;;;;;;4936195;29;20200;-78
2022/01/04 07:32:58;;;;;;;2.33;1.50;;;10.10;99.90;;;;;;4935229;29;20187;-77
2022/01/04 07:35:24;;;;;;;3.00;1.50;;;10.10;99.90;;;;;;4936472;29;20200;-77
2022/01/04 07:37:51;;;;;;;1.50;1.40;;;10.10;99.90;;;;;;4934052;29;20192;-77
2022/01/04 07:40:17;;;;;;;34.87;21.60;;;10.20;99.90;;;;;;4933496;29;20211;-77
2022/01/04 07:42:43;;;;;;;4.53;2.77;;;10.20;99.90;;;;;;4924393;29;20180;-78
2022/01/04 07:45:09;;;;;;;3.47;2.30;;;10.20;99.90;;;;;;4922547;29;20200;-77
2022/01/04 07:47:35;;;;;;;2.83;2.00;;;10.30;99.90;;;;;;4922262;29;20176;-77
2022/01/04 07:50:00;;;;;;;2.00;1.60;;;10.30;99.90;;;;;;4918316;29;20215;-78
2022/01/04 07:52:26;;;;;;;3.37;1.90;;;10.20;99.90;;;;;;4921609;29;20180;-78
2022/01/04 07:54:53;;;;;;;2.30;1.47;;;10.20;99.90;;;;;;4921421;29;20204;-79
2022/01/04 07:57:19;;;;;;;2.90;2.10;;;10.20;99.90;;;;;;4918637;29;20265;-77
2022/01/04 07:59:44;;;;;;;3.13;1.60;;;10.30;99.90;;;;;;4917941;29;20700;-77
2022/01/04 08:02:10;;;;;;;2.10;1.50;;;10.20;99.90;;;;;;4920490;29;20275;-77
2022/01/04 08:04:35;;;;;;;1.93;1.43;;;10.20;99.90;;;;;;4941253;29;20201;-77
2022/01/04 08:07:01;;;;;;;2.37;1.50;;;10.30;99.90;;;;;;4938697;29;20182;-77
2022/01/04 08:09:27;;;;;;;2.57;1.40;;;10.20;99.90;;;;;;4938206;29;20199;-77
2022/01/04 08:11:52;;;;;;;4.10;1.60;;;10.20;99.90;;;;;;4938989;29;20603;-77
2022/01/04 08:14:18;;;;;;;1.50;1.40;;;10.30;99.90;;;;;;4941990;29;20180;-76
2022/01/04 08:16:44;;;;;;;3.90;1.50;;;10.30;99.90;;;;;;4937373;29;20524;-76
2022/01/04 08:19:09;;;;;;;3.20;2.00;;;10.20;99.90;;;;;;4938392;29;20702;-76
2022/01/04 08:21:35;;;;;;;3.20;2.00;;;10.20;99.90;;;;;;4938335;29;20231;-77
2022/01/04 08:24:01;;;;;;;3.53;1.80;;;10.30;99.90;;;;;;4936509;29;20195;-77
2022/01/04 08:26:28;;;;;;;1.97;1.57;;;10.30;99.90;;;;;;4935024;29;20595;-76
2022/01/04 08:28:54;;;;;;;4.60;1.90;;;10.30;99.90;;;;;;4935623;29;20541;-76
2022/01/04 08:31:20;;;;;;;3.13;2.10;;;10.30;99.90;;;;;;4935176;29;20313;-76
2022/01/04 08:33:45;;;;;;;2.57;1.63;;;10.40;99.90;;;;;;4934548;29;20559;-75
2022/01/04 08:36:11;;;;;;;4.00;1.73;;;10.40;99.90;;;;;;4935674;29;20203;-76
2022/01/04 08:38:39;;;;;;;2.93;1.70;;;10.50;99.90;;;;;;4916715;29;20262;-77
2022/01/04 08:41:05;;;;;;;5.30;1.70;;;10.60;99.90;;;;;;4930965;29;20202;-76
2022/01/04 08:43:30;;;;;;;3.33;1.70;;;10.70;99.90;;;;;;4934501;29;20596;-76
2022/01/04 08:45:56;;;;;;;1.93;1.67;;;10.80;99.90;;;;;;4933291;29;20298;-78
2022/01/04 08:48:21;;;;;;;6.23;2.00;;;10.80;99.90;;;;;;4933298;29;20292;-76
2022/01/04 08:50:48;;;;;;;2.97;2.23;;;10.90;99.90;;;;;;4933236;29;20215;-77
2022/01/04 08:53:14;;;;;;;4.13;2.30;;;10.90;99.90;;;;;;4934382;29;20179;-77
2022/01/04 08:55:40;;;;;;;3.70;1.50;;;10.90;99.90;;;;;;4934116;29;20298;-76
2022/01/04 08:58:07;;;;;;;3.67;2.13;;;11.10;99.90;;;;;;4934691;29;20188;-76
2022/01/04 09:00:33;;;;;;;2.27;2.00;;;11.10;99.90;;;;;;4935106;29;20254;-76
2022/01/04 09:03:00;;;;;;;4.10;1.90;;;11.10;99.90;;;;;;4938231;29;20195;-77
2022/01/04 09:05:27;;;;;;;4.63;1.73;;;11.20;99.90;;;;;;4936404;29;20195;-77
2022/01/04 09:07:52;;;;;;;2.93;1.73;;;11.40;99.90;;;;;;4934911;29;20190;-78
2022/01/04 09:10:18;;;;;;;5.53;1.60;;;11.40;99.90;;;;;;4941121;29;20672;-79
2022/01/04 09:13:10;;;;;;;2.60;1.70;;;11.50;99.90;;;;;;4939912;29;20250;-77
2022/01/04 09:15:33;;;;;;;2.20;1.80;;;11.60;99.90;;;;;;4934527;29;20218;-78
2022/01/04 09:20:48;;;;;;;1.73;1.63;;;11.90;99.90;;;;;;4937815;29;20187;-78
2022/01/04 09:23:20;;;;;;;2.10;1.90;;;11.90;99.90;;;;;;4937889;29;20179;-78
2022/01/04 09:25:47;;;;;;;1.77;1.43;;;12.00;99.90;;;;;;4936434;29;20222;-76
2022/01/04 09:28:13;;;;;;;3.37;1.90;;;12.00;99.90;;;;;;5041448;23;20715;-75
2022/01/04 09:30:40;;;;;;;2.37;2.03;;;12.00;99.90;;;;;;4955293;29;20217;-75
2022/01/04 09:33:06;;;;;;;3.17;2.20;;;12.00;99.90;;;;;;4954262;29;20186;-75
2022/01/04 09:35:33;;;;;;;4.27;3.80;;;12.00;99.90;;;;;;4948907;29;20198;-75
2022/01/04 09:37:59;;;;;;;5.93;4.37;;;12.00;99.90;;;;;;4944194;28;20724;-75
2022/01/04 09:40:24;;;;;;;6.23;4.93;;;12.00;99.90;;;;;;4944671;28;20270;-75
2022/01/04 09:42:50;;;;;;;3.27;1.77;;;12.00;99.90;;;;;;4945611;29;20183;-74
2022/01/04 09:45:16;;;;;;;4.00;2.97;;;11.90;99.90;;;;;;4944041;28;20304;-74
2022/01/04 09:47:41;;;;;;;2.70;2.00;;;11.60;99.90;;;;;;4944097;29;20202;-75
2022/01/04 09:50:10;;;;;;;8.83;5.60;;;11.50;99.90;;;;;;4942393;29;20221;-73
2022/01/04 09:52:43;;;;;;;6.47;4.20;;;11.60;99.90;;;;;;4945687;29;20175;-74
2022/01/04 09:55:13;;;;;;;3.70;2.60;;;11.50;99.90;;;;;;4925898;29;20215;-74
2022/01/04 09:57:38;;;;;;;3.63;3.10;;;11.60;99.90;;;;;;4941684;29;20186;-75
2022/01/04 10:00:06;;;;;;;6.43;4.40;;;11.70;99.90;;;;;;4945740;29;20271;-74
2022/01/04 10:02:32;;;;;;;3.33;3.03;;;11.70;99.90;;;;;;4943336;29;20549;-74
2022/01/04 10:05:25;;;;;;;3.00;1.80;;;11.70;99.90;;;;;;4944246;28;20198;-75
2022/01/04 10:08:02;;;;;;;3.20;1.90;;;11.80;99.90;;;;;;4940477;29;20191;-76
2022/01/04 10:10:28;;;;;;;2.00;1.80;;;11.80;99.90;;;;;;4946405;29;20210;-77
2022/01/04 10:12:59;;;;;;;5.20;1.50;;;11.80;99.90;;;;;;4944839;29;20219;-76
2022/01/04 10:15:47;;;;;;;3.07;1.70;;;11.80;99.90;;;;;;4926326;29;20203;-77
2022/01/04 10:18:13;;;;;;;2.90;1.67;;;11.90;99.90;;;;;;4944330;29;20174;-76
2022/01/04 10:20:45;;;;;;;1.70;1.57;;;12.00;99.90;;;;;;4944943;29;20235;-75
2022/01/04 10:23:21;;;;;;;2.17;1.50;;;12.00;99.90;;;;;;4944269;28;20549;-76
2022/01/04 10:25:50;;;;;;;3.57;1.80;;;12.10;99.90;;;;;;4946577;29;20229;-76
2022/01/04 10:28:37;;;;;;;3.63;1.70;;;12.10;99.90;;;;;;4943527;28;20606;-77
2022/01/04 10:31:05;;;;;;;2.97;1.67;;;12.20;29.20;;;;;;4945423;28;20211;-76
2022/01/04 10:33:34;;;;;;;3.57;1.77;;;12.30;96.90;;;;;;4944235;29;20211;-76
2022/01/04 10:36:01;;;;;;;2.40;1.80;;;12.30;93.20;;;;;;4945238;29;20203;-77
2022/01/04 10:38:30;;;;;;;10.97;5.70;;;12.40;16.10;;;;;;4945501;29;20175;-76
2022/01/04 10:41:14;;;;;;;2.33;1.97;;;12.30;31.40;;;;;;4944657;29;20175;-76
2022/01/04 10:43:45;;;;;;;2.63;1.70;;;12.40;46.70;;;;;;4946205;28;20677;-76
2022/01/04 10:46:18;;;;;;;3.77;2.93;;;12.40;10.30;;;;;;4938972;29;20227;-79
2022/01/04 10:48:46;;;;;;;3.20;2.13;;;12.40;1.00;;;;;;4941530;29;20274;-77
2022/01/04 10:51:22;;;;;;;2.97;2.10;;;12.40;22.60;;;;;;4946814;28;20206;-77
2022/01/04 10:53:54;;;;;;;4.57;2.33;;;12.40;1.60;;;;;;4944434;28;20190;-74
2022/01/04 10:56:31;;;;;;;4.07;2.00;;;12.40;1.00;;;;;;4943669;29;20195;-74
2022/01/04 10:58:57;;;;;;;2.87;1.70;;;12.50;1.00;;;;;;4943700;29;20179;-74
2022/01/04 11:01:26;;;;;;;2.45;1.63;;;12.40;20.30;;;;;;4944115;29;20455;-76
2022/01/04 11:04:00;;;;;;;2.43;1.83;;;12.30;29.30;;;;;;4943227;29;20187;-76
2022/01/04 11:06:36;;;;;;;2.70;1.80;;;12.30;55.90;;;;;;4944174;28;20662;-74
2022/01/04 11:09:07;;;;;;;2.23;1.67;;;12.30;35.50;;;;;;4944128;29;20178;-74
2022/01/04 11:11:32;;;;;;;3.50;1.70;;;12.30;73.20;;;;;;4943696;29;20217;-74
2022/01/04 11:13:59;;;;;;;6.13;1.77;;;12.30;50.10;;;;;;4945294;28;20171;-75
2022/01/04 11:16:25;;;;;;;2.13;1.60;;;12.30;83.70;;;;;;4940063;29;20195;-75
2022/01/04 11:18:55;;;;;;;2.70;1.83;;;12.30;21.20;;;;;;4948477;29;20186;-74
2022/01/04 11:21:32;;;;;;;3.30;1.67;;;12.40;1.00;;;;;;4950626;28;20183;-75
2022/01/04 11:24:01;;;;;;;3.40;1.80;;;12.40;1.00;;;;;;4943509;29;20209;-74
2022/01/04 11:26:27;;;;;;;2.00;1.80;;;12.50;1.00;;;;;;4938831;28;20198;-75
2022/01/04 11:28:54;;;;;;;1.77;1.63;;;12.60;1.00;;;;;;4935026;29;20226;-75
2022/01/04 11:31:47;;;;;;;2.97;1.47;;;12.60;1.00;;;;;;4935447;29;20223;-75
2022/01/04 11:34:43;;;;;;;3.33;1.70;;;12.50;1.00;;;;;;4935508;29;20175;-75
2022/01/04 11:37:19;;;;;;;3.77;1.90;;;12.50;1.00;;;;;;4945734;29;20190;-75
2022/01/04 11:39:45;;;;;;;7.13;4.27;;;12.50;1.00;;;;;;4951520;29;20280;-76
2022/01/04 11:42:31;;;;;;;13.13;8.90;;;12.50;1.00;;;;;;4952265;29;20273;-77
2022/01/04 11:44:58;;;;;;;4.70;2.80;;;12.50;1.00;;;;;;4946219;29;20276;-76
2022/01/04 11:47:27;;;;;;;2.37;2.10;;;12.40;1.00;;;;;;4953298;29;20178;-76
2022/01/04 11:50:23;;;;;;;3.83;3.43;;;12.40;1.00;;;;;;4948112;28;20947;-75
2022/01/04 11:52:55;;;;;;;2.90;2.30;;;12.30;11.10;;;;;;4942046;29;20191;-74
2022/01/04 11:55:38;;;;;;;4.33;2.47;;;12.20;37.20;;;;;;4940684;29;20219;-74
2022/01/04 11:58:07;;;;;;;3.77;2.23;;;12.10;99.90;;;;;;4953136;29;20178;-76
2022/01/04 12:00:39;;;;;;;6.27;2.63;;;12.10;99.90;;;;;;4944434;29;20183;-76
2022/01/04 12:03:09;;;;;;;4.10;2.83;;;12.00;96.70;;;;;;4938871;29;20274;-76
2022/01/04 12:05:39;;;;;;;4.33;2.70;;;12.00;99.90;;;;;;4952024;28;20206;-76
2022/01/04 12:08:18;;;;;;;4.23;3.33;;;12.00;90.50;;;;;;4946837;28;20194;-76
2022/01/04 12:10:46;;;;;;;3.87;3.43;;;12.00;99.90;;;;;;4944286;28;20301;-75
2022/01/04 12:13:14;;;;;;;2.83;2.13;;;12.00;99.90;;;;;;4939326;28;20210;-76
2022/01/04 12:15:48;;;;;;;3.87;2.07;;;12.00;99.90;;;;;;4935998;29;20671;-74
2022/01/04 12:18:23;;;;;;;3.20;2.87;;;12.00;99.90;;;;;;4939382;29;20186;-75
2022/01/04 12:20:58;;;;;;;3.37;3.07;;;12.00;99.90;;;;;;4937806;29;20186;-75
2022/01/04 12:23:27;;;;;;;7.53;3.43;;;12.00;99.90;;;;;;4940693;29;20186;-75
2022/01/04 12:28:36;;;;;;;3.37;2.13;;;11.90;99.90;;;;;;4950645;28;20205;-75
2022/01/04 12:31:17;;;;;;;11.80;3.93;;;11.80;99.90;;;;;;4949519;28;20593;-75
2022/01/04 12:33:48;;;;;;;5.37;3.00;;;11.80;99.90;;;;;;4948693;29;20237;-75
2022/01/04 12:36:38;;;;;;;5.73;2.30;;;11.90;99.90;;;;;;4942790;28;20221;-74
2022/01/04 12:39:07;;;;;;;5.70;3.17;;;11.80;99.90;;;;;;4946546;29;20238;-74
2022/01/04 12:41:35;;;;;;;3.73;2.87;;;11.90;99.90;;;;;;4946629;28;20179;-74
2022/01/04 12:44:02;;;;;;;3.00;2.27;;;11.90;99.90;;;;;;4943867;29;20665;-73
2022/01/04 12:46:32;;;;;;;5.00;2.63;;;11.90;99.90;;;;;;4946232;29;20224;-74
2022/01/04 12:49:04;;;;;;;4.93;3.93;;;11.80;99.90;;;;;;4944445;28;20655;-74
2022/01/04 12:51:31;;;;;;;6.20;4.77;;;11.80;99.90;;;;;;4946964;29;20296;-74
2022/01/04 12:53:59;;;;;;;4.17;3.00;;;11.70;99.90;;;;;;4945849;29;20234;-75
2022/01/04 12:56:27;;;;;;;4.40;3.30;;;11.70;99.90;;;;;;4943187;29;20198;-75
2022/01/04 12:58:53;;;;;;;6.97;3.50;;;11.70;99.90;;;;;;4950968;28;20183;-74
2022/01/04 13:01:27;;;;;;;4.13;2.70;;;11.70;99.90;;;;;;4956621;28;20260;-75
2022/01/04 13:03:54;;;;;;;4.10;1.90;;;11.70;99.90;;;;;;4956735;29;20659;-75
2022/01/04 13:06:21;;;;;;;4.67;2.10;;;11.70;99.90;;;;;;4953345;28;20229;-74